createdAt,value
2024-01-08T00:00:06.235Z,1021.48
2024-01-08T00:00:20.240Z,1021.47
2024-01-08T00:00:34.263Z,1021.48
2024-01-08T00:01:02.266Z,1021.47
2024-01-08T00:01:16.397Z,1021.47
2024-01-08T00:01:30.453Z,1021.49
2024-01-08T00:01:44.463Z,1021.50
2024-01-08T00:02:12.488Z,1021.50
2024-01-08T00:02:26.517Z,1021.50
2024-01-08T00:02:40.620Z,1021.52
2024-01-08T00:02:54.671Z,1021.51
2024-01-08T00:03:22.649Z,1021.50
2024-01-08T00:03:36.661Z,1021.50
2024-01-08T00:03:50.733Z,1021.52
2024-01-08T00:04:07.424Z,1021.53
2024-01-08T00:04:33.258Z,1021.53
2024-01-08T00:04:47.421Z,1021.51
2024-01-08T00:05:01.460Z,1021.50
2024-01-08T00:05:15.639Z,1021.50
2024-01-08T00:05:43.676Z,1021.53
2024-01-08T00:05:57.749Z,1021.52
2024-01-08T00:06:11.839Z,1021.51
2024-01-08T00:06:25.929Z,1021.51
2024-01-08T00:06:53.877Z,1021.50
2024-01-08T00:07:07.870Z,1021.51
2024-01-08T00:07:21.850Z,1021.52
2024-01-08T00:07:35.835Z,1021.53
2024-01-08T00:07:49.862Z,1021.52
2024-01-08T00:08:03.939Z,1021.51
2024-01-08T00:08:17.970Z,1021.49
2024-01-08T00:08:32.168Z,1021.48
2024-01-08T00:08:46.320Z,1021.49
2024-01-08T00:09:14.300Z,1021.49
2024-01-08T00:09:28.311Z,1021.48
2024-01-08T00:09:42.299Z,1021.47
2024-01-08T00:09:56.286Z,1021.47
2024-01-08T00:10:24.255Z,1021.48
2024-01-08T00:10:38.239Z,1021.49
2024-01-08T00:10:52.240Z,1021.48
2024-01-08T00:11:06.276Z,1021.47
2024-01-08T00:11:34.273Z,1021.46
2024-01-08T00:11:48.277Z,1021.46
2024-01-08T00:12:02.270Z,1021.47
2024-01-08T00:12:16.246Z,1021.47
2024-01-08T00:12:44.221Z,1021.48
2024-01-08T00:12:58.228Z,1021.46
2024-01-08T00:13:12.834Z,1021.46
2024-01-08T00:13:26.825Z,1021.47
2024-01-08T00:13:54.830Z,1021.49
2024-01-08T00:14:08.836Z,1021.48
2024-01-08T00:14:22.845Z,1021.48
2024-01-08T00:14:36.861Z,1021.47
2024-01-08T00:15:04.863Z,1021.50
2024-01-08T00:15:18.908Z,1021.48
2024-01-08T00:15:32.904Z,1021.46
2024-01-08T00:15:46.957Z,1021.46
2024-01-08T00:16:17.591Z,1021.48
2024-01-08T00:16:29.938Z,1021.48
2024-01-08T00:16:43.958Z,1021.48
2024-01-08T00:16:58.002Z,1021.47
2024-01-08T00:17:26.039Z,1021.49
2024-01-08T00:17:40.094Z,1021.48
2024-01-08T00:17:54.294Z,1021.47
2024-01-08T00:18:08.424Z,1021.49
2024-01-08T00:18:36.587Z,1021.48
2024-01-08T00:18:50.724Z,1021.47
2024-01-08T00:19:04.810Z,1021.50
2024-01-08T00:19:18.906Z,1021.49
2024-01-08T00:19:46.921Z,1021.48
2024-01-08T00:20:00.944Z,1021.48
2024-01-08T00:20:15.397Z,1021.48
2024-01-08T00:20:29.567Z,1021.48
2024-01-08T00:20:57.669Z,1021.47
2024-01-08T00:21:11.685Z,1021.48
2024-01-08T00:21:25.675Z,1021.47
2024-01-08T00:21:39.706Z,1021.47
2024-01-08T00:22:07.710Z,1021.46
2024-01-08T00:22:21.737Z,1021.45
2024-01-08T00:22:35.715Z,1021.46
2024-01-08T00:22:49.746Z,1021.47
2024-01-08T00:23:17.745Z,1021.46
2024-01-08T00:23:31.940Z,1021.45
2024-01-08T00:23:45.967Z,1021.46
2024-01-08T00:23:59.968Z,1021.48
2024-01-08T00:24:27.952Z,1021.49
2024-01-08T00:24:41.956Z,1021.47
2024-01-08T00:24:55.979Z,1021.46
2024-01-08T00:25:09.960Z,1021.48
2024-01-08T00:25:37.878Z,1021.48
2024-01-08T00:25:51.986Z,1021.47
2024-01-08T00:26:06.113Z,1021.48
2024-01-08T00:26:20.244Z,1021.50
2024-01-08T00:26:48.357Z,1021.49
2024-01-08T00:27:02.388Z,1021.49
2024-01-08T00:27:16.405Z,1021.50
2024-01-08T00:27:30.394Z,1021.51
2024-01-08T00:27:58.365Z,1021.51
2024-01-08T00:28:13.161Z,1021.52
2024-01-08T00:28:27.149Z,1021.52
2024-01-08T00:28:41.169Z,1021.52
2024-01-08T00:29:09.160Z,1021.53
2024-01-08T00:29:23.270Z,1021.52
2024-01-08T00:29:37.398Z,1021.52
2024-01-08T00:29:51.428Z,1021.52
2024-01-08T00:30:19.777Z,1021.52
2024-01-08T00:30:34.130Z,1021.51
2024-01-08T00:30:48.178Z,1021.51
2024-01-08T00:31:03.041Z,1021.52
2024-01-08T00:31:31.039Z,1021.51
2024-01-08T00:31:45.108Z,1021.51
2024-01-08T00:31:59.186Z,1021.51
2024-01-08T00:32:13.627Z,1021.52
2024-01-08T00:32:41.754Z,1021.51
2024-01-08T00:32:55.924Z,1021.52
2024-01-08T00:33:10.042Z,1021.51
2024-01-08T00:33:24.171Z,1021.51
2024-01-08T00:33:52.247Z,1021.52
2024-01-08T00:34:06.529Z,1021.52
2024-01-08T00:34:20.673Z,1021.52
2024-01-08T00:34:34.743Z,1021.52
2024-01-08T00:35:02.874Z,1021.52
2024-01-08T00:35:17.074Z,1021.53
2024-01-08T00:35:31.287Z,1021.51
2024-01-08T00:35:45.394Z,1021.51
2024-01-08T00:36:13.349Z,1021.52
2024-01-08T00:36:27.338Z,1021.52
2024-01-08T00:36:41.321Z,1021.52
2024-01-08T00:36:55.396Z,1021.51
2024-01-08T00:37:23.380Z,1021.50
2024-01-08T00:37:37.386Z,1021.50
2024-01-08T00:37:51.437Z,1021.52
2024-01-08T00:38:05.483Z,1021.53
2024-01-08T00:38:33.560Z,1021.52
2024-01-08T00:38:47.582Z,1021.50
2024-01-08T00:39:01.666Z,1021.52
2024-01-08T00:39:15.662Z,1021.53
2024-01-08T00:39:43.673Z,1021.52
2024-01-08T00:39:57.654Z,1021.51
2024-01-08T00:40:11.657Z,1021.53
2024-01-08T00:40:25.723Z,1021.53
2024-01-08T00:40:53.760Z,1021.53
2024-01-08T00:41:07.815Z,1021.53
2024-01-08T00:41:21.912Z,1021.54
2024-01-08T00:41:36.041Z,1021.55
2024-01-08T00:42:04.032Z,1021.56
2024-01-08T00:42:18.034Z,1021.57
2024-01-08T00:42:32.077Z,1021.57
2024-01-08T00:42:46.075Z,1021.56
2024-01-08T00:43:14.047Z,1021.57
2024-01-08T00:43:28.040Z,1021.58
2024-01-08T00:43:42.027Z,1021.58
2024-01-08T00:43:56.109Z,1021.59
2024-01-08T00:44:24.128Z,1021.58
2024-01-08T00:44:38.204Z,1021.58
2024-01-08T00:44:52.207Z,1021.59
2024-01-08T00:45:06.180Z,1021.59
2024-01-08T00:45:20.162Z,1021.59
2024-01-08T00:45:34.306Z,1021.58
2024-01-08T00:45:48.340Z,1021.59
2024-01-08T00:46:02.337Z,1021.59
2024-01-08T00:46:16.335Z,1021.61
2024-01-08T00:46:44.285Z,1021.64
2024-01-08T00:46:58.267Z,1021.63
2024-01-08T00:47:12.299Z,1021.63
2024-01-08T00:47:26.419Z,1021.62
2024-01-08T00:47:54.492Z,1021.62
2024-01-08T00:48:08.514Z,1021.61
2024-01-08T00:48:22.557Z,1021.61
2024-01-08T00:48:36.572Z,1021.61
2024-01-08T00:49:04.562Z,1021.62
2024-01-08T00:49:18.662Z,1021.62
2024-01-08T00:49:32.751Z,1021.63
2024-01-08T00:49:46.815Z,1021.63
2024-01-08T00:50:14.880Z,1021.64
2024-01-08T00:50:29.058Z,1021.64
2024-01-08T00:50:43.119Z,1021.63
2024-01-08T00:50:57.198Z,1021.65
2024-01-08T00:51:25.143Z,1021.66
2024-01-08T00:51:39.613Z,1021.66
2024-01-08T00:51:53.599Z,1021.64
2024-01-08T00:52:07.583Z,1021.65
2024-01-08T00:52:35.533Z,1021.67
2024-01-08T00:52:49.567Z,1021.66
2024-01-08T00:53:03.712Z,1021.66
2024-01-08T00:53:17.785Z,1021.66
2024-01-08T00:53:45.784Z,1021.67
2024-01-08T00:53:59.796Z,1021.68
2024-01-08T00:54:13.787Z,1021.67
2024-01-08T00:54:27.769Z,1021.66
2024-01-08T00:54:55.726Z,1021.67
2024-01-08T00:55:09.739Z,1021.69
2024-01-08T00:55:23.729Z,1021.68
2024-01-08T00:55:38.031Z,1021.67
2024-01-08T00:56:06.090Z,1021.68
2024-01-08T00:56:20.184Z,1021.68
2024-01-08T00:56:34.246Z,1021.70
2024-01-08T00:56:48.275Z,1021.70
2024-01-08T00:57:16.213Z,1021.68
2024-01-08T00:57:30.197Z,1021.70
2024-01-08T00:57:44.184Z,1021.70
2024-01-08T00:57:58.192Z,1021.70
2024-01-08T00:58:12.183Z,1021.70
2024-01-08T00:58:26.185Z,1021.69
2024-01-08T00:58:40.164Z,1021.68
2024-01-08T00:58:54.174Z,1021.69
2024-01-08T00:59:08.263Z,1021.71
2024-01-08T00:59:36.353Z,1021.70
2024-01-08T00:59:50.349Z,1021.70
2024-01-08T01:00:04.424Z,1021.71
2024-01-08T01:00:18.442Z,1021.71
2024-01-08T01:00:46.429Z,1021.73
2024-01-08T01:01:00.524Z,1021.73
2024-01-08T01:01:14.605Z,1021.73
2024-01-08T01:01:28.624Z,1021.71
2024-01-08T01:01:56.573Z,1021.73
2024-01-08T01:02:10.620Z,1021.73
2024-01-08T01:02:24.670Z,1021.73
2024-01-08T01:02:38.758Z,1021.75
2024-01-08T01:03:06.819Z,1021.76
2024-01-08T01:03:21.013Z,1021.75
2024-01-08T01:03:35.196Z,1021.75
2024-01-08T01:03:49.449Z,1021.75
2024-01-08T01:04:17.674Z,1021.76
2024-01-08T01:04:31.900Z,1021.77
2024-01-08T01:04:46.167Z,1021.76
2024-01-08T01:05:00.542Z,1021.76
2024-01-08T01:05:28.706Z,1021.76
2024-01-08T01:05:42.850Z,1021.76
2024-01-08T01:05:57.147Z,1021.76
2024-01-08T01:06:11.343Z,1021.77
2024-01-08T01:06:39.343Z,1021.78
2024-01-08T01:06:53.350Z,1021.78
2024-01-08T01:07:07.327Z,1021.79
2024-01-08T01:07:21.319Z,1021.79
2024-01-08T01:07:49.292Z,1021.78
2024-01-08T01:08:03.349Z,1021.78
2024-01-08T01:08:17.402Z,1021.78
2024-01-08T01:08:31.532Z,1021.78
2024-01-08T01:08:59.499Z,1021.80
2024-01-08T01:09:13.494Z,1021.80
2024-01-08T01:09:27.508Z,1021.80
2024-01-08T01:09:41.484Z,1021.80
2024-01-08T01:10:09.439Z,1021.80
2024-01-08T01:10:23.435Z,1021.80
2024-01-08T01:10:37.454Z,1021.79
2024-01-08T01:10:51.470Z,1021.80
2024-01-08T01:11:19.540Z,1021.81
2024-01-08T01:11:33.595Z,1021.81
2024-01-08T01:11:47.605Z,1021.81
2024-01-08T01:12:01.586Z,1021.81
2024-01-08T01:12:29.546Z,1021.81
2024-01-08T01:12:43.537Z,1021.82
2024-01-08T01:12:57.574Z,1021.83
2024-01-08T01:13:11.567Z,1021.83
2024-01-08T01:13:39.503Z,1021.85
2024-01-08T01:13:53.504Z,1021.85
2024-01-08T01:14:07.610Z,1021.86
2024-01-08T01:14:21.679Z,1021.87
2024-01-08T01:14:49.689Z,1021.89
2024-01-08T01:15:03.677Z,1021.88
2024-01-08T01:15:17.656Z,1021.88
2024-01-08T01:15:31.627Z,1021.87
2024-01-08T01:15:59.558Z,1021.86
2024-01-08T01:16:13.546Z,1021.89
2024-01-08T01:16:27.541Z,1021.92
2024-01-08T01:16:41.520Z,1021.90
2024-01-08T01:17:09.590Z,1021.90
2024-01-08T01:17:23.840Z,1021.89
2024-01-08T01:17:38.162Z,1021.90
2024-01-08T01:17:52.534Z,1021.91
2024-01-08T01:18:20.733Z,1021.91
2024-01-08T01:18:34.999Z,1021.90
2024-01-08T01:18:49.152Z,1021.91
2024-01-08T01:19:03.373Z,1021.90
2024-01-08T01:19:31.567Z,1021.92
2024-01-08T01:19:45.571Z,1021.92
2024-01-08T01:19:59.578Z,1021.91
2024-01-08T01:20:13.678Z,1021.92
2024-01-08T01:20:41.636Z,1021.91
2024-01-08T01:20:55.613Z,1021.92
2024-01-08T01:21:09.616Z,1021.93
2024-01-08T01:21:23.708Z,1021.92
2024-01-08T01:21:51.703Z,1021.94
2024-01-08T01:22:05.701Z,1021.94
2024-01-08T01:22:19.699Z,1021.95
2024-01-08T01:22:33.683Z,1021.94
2024-01-08T01:23:01.653Z,1021.93
2024-01-08T01:23:15.712Z,1021.95
2024-01-08T01:23:29.750Z,1021.94
2024-01-08T01:23:43.769Z,1021.95
2024-01-08T01:24:11.726Z,1021.95
2024-01-08T01:24:25.761Z,1021.94
2024-01-08T01:24:39.759Z,1021.95
2024-01-08T01:24:53.778Z,1021.95
2024-01-08T01:25:21.764Z,1021.97
2024-01-08T01:25:35.805Z,1021.95
2024-01-08T01:25:49.814Z,1021.94
2024-01-08T01:26:03.853Z,1021.95
2024-01-08T01:26:31.902Z,1021.96
2024-01-08T01:26:45.904Z,1021.96
2024-01-08T01:26:59.882Z,1021.97
2024-01-08T01:27:13.875Z,1021.97
2024-01-08T01:27:41.818Z,1021.97
2024-01-08T01:27:55.794Z,1021.98
2024-01-08T01:28:09.799Z,1021.99
2024-01-08T01:28:23.782Z,1021.99
2024-01-08T01:28:51.753Z,1022.00
2024-01-08T01:29:05.828Z,1021.98
2024-01-08T01:29:19.930Z,1021.98
2024-01-08T01:29:34.014Z,1021.98
2024-01-08T01:30:02.079Z,1021.98
2024-01-08T01:30:16.099Z,1021.99
2024-01-08T01:30:30.164Z,1022.00
2024-01-08T01:30:44.336Z,1022.00
2024-01-08T01:31:12.335Z,1021.99
2024-01-08T01:31:26.310Z,1021.98
2024-01-08T01:31:40.307Z,1021.99
2024-01-08T01:31:54.405Z,1022.00
2024-01-08T01:32:22.392Z,1022.01
2024-01-08T01:32:36.547Z,1022.01
2024-01-08T01:32:50.749Z,1022.01
2024-01-08T01:33:04.806Z,1022.00
2024-01-08T01:33:32.845Z,1022.00
2024-01-08T01:33:46.999Z,1021.99
2024-01-08T01:34:01.106Z,1021.99
2024-01-08T01:34:15.183Z,1022.00
2024-01-08T01:34:43.223Z,1022.00
2024-01-08T01:34:57.266Z,1022.00
2024-01-08T01:35:11.478Z,1022.01
2024-01-08T01:35:25.545Z,1022.01
2024-01-08T01:35:53.541Z,1022.01
2024-01-08T01:36:07.531Z,1022.01
2024-01-08T01:36:21.514Z,1022.00
2024-01-08T01:36:35.751Z,1022.00
2024-01-08T01:37:03.733Z,1022.01
2024-01-08T01:37:17.725Z,1021.99
2024-01-08T01:37:31.729Z,1022.00
2024-01-08T01:37:45.743Z,1022.00
2024-01-08T01:38:13.719Z,1021.98
2024-01-08T01:38:27.862Z,1021.98
2024-01-08T01:38:41.960Z,1021.99
2024-01-08T01:38:55.969Z,1021.99
2024-01-08T01:39:23.944Z,1021.98
2024-01-08T01:39:38.013Z,1021.98
2024-01-08T01:39:52.078Z,1021.99
2024-01-08T01:40:06.064Z,1021.97
2024-01-08T01:40:34.094Z,1021.99
2024-01-08T01:40:48.130Z,1021.98
2024-01-08T01:41:02.166Z,1021.98
2024-01-08T01:41:16.223Z,1021.99
2024-01-08T01:41:44.220Z,1021.99
2024-01-08T01:41:58.203Z,1022.00
2024-01-08T01:42:12.421Z,1022.00
2024-01-08T01:42:26.434Z,1022.00
2024-01-08T01:42:54.529Z,1022.01
2024-01-08T01:43:08.512Z,1022.00
2024-01-08T01:43:22.507Z,1022.01
2024-01-08T01:43:36.502Z,1022.00
2024-01-08T01:44:04.463Z,1022.01
2024-01-08T01:44:18.573Z,1022.02
2024-01-08T01:44:32.685Z,1022.03
2024-01-08T01:44:46.701Z,1022.03
2024-01-08T01:45:00.683Z,1022.03
2024-01-08T01:45:15.285Z,1022.04
2024-01-08T01:45:29.259Z,1022.04
2024-01-08T01:45:43.238Z,1022.05
2024-01-08T01:45:57.210Z,1022.04
2024-01-08T01:46:25.192Z,1022.04
2024-01-08T01:46:39.203Z,1022.05
2024-01-08T01:46:53.245Z,1022.04
2024-01-08T01:47:07.308Z,1022.04
2024-01-08T01:47:35.579Z,1022.04
2024-01-08T01:47:49.907Z,1022.04
2024-01-08T01:48:04.237Z,1022.04
2024-01-08T01:48:18.353Z,1022.04
2024-01-08T01:48:46.585Z,1022.04
2024-01-08T01:49:00.727Z,1022.05
2024-01-08T01:49:14.961Z,1022.04
2024-01-08T01:49:29.079Z,1022.05
2024-01-08T01:49:57.173Z,1022.06
2024-01-08T01:50:11.224Z,1022.05
2024-01-08T01:50:25.335Z,1022.06
2024-01-08T01:50:39.429Z,1022.06
2024-01-08T01:51:07.443Z,1022.06
2024-01-08T01:51:21.449Z,1022.05
2024-01-08T01:51:35.443Z,1022.05
2024-01-08T01:51:49.423Z,1022.06
2024-01-08T01:52:17.399Z,1022.06
2024-01-08T01:52:31.402Z,1022.05
2024-01-08T01:52:45.399Z,1022.06
2024-01-08T01:52:59.457Z,1022.05
2024-01-08T01:53:13.518Z,1022.05
2024-01-08T01:53:27.565Z,1022.05
2024-01-08T01:53:41.622Z,1022.06
2024-01-08T01:53:55.606Z,1022.06
2024-01-08T01:54:09.592Z,1022.06
2024-01-08T01:54:37.619Z,1022.06
2024-01-08T01:54:51.593Z,1022.07
2024-01-08T01:55:05.588Z,1022.06
2024-01-08T01:55:19.593Z,1022.06
2024-01-08T01:55:47.631Z,1022.07
2024-01-08T01:56:01.698Z,1022.07
2024-01-08T01:56:15.786Z,1022.06
2024-01-08T01:56:30.001Z,1022.06
2024-01-08T01:56:58.031Z,1022.07
2024-01-08T01:57:11.993Z,1022.07
2024-01-08T01:57:25.977Z,1022.07
2024-01-08T01:57:39.981Z,1022.06
2024-01-08T01:58:07.979Z,1022.07
2024-01-08T01:58:22.023Z,1022.06
2024-01-08T01:58:36.030Z,1022.07
2024-01-08T01:58:50.091Z,1022.07
2024-01-08T01:59:18.169Z,1022.08
2024-01-08T01:59:32.235Z,1022.07
2024-01-08T01:59:46.268Z,1022.07
2024-01-08T02:00:00.383Z,1022.08
2024-01-08T02:00:28.516Z,1022.07
2024-01-08T02:00:42.608Z,1022.06
2024-01-08T02:00:56.680Z,1022.06
2024-01-08T02:01:10.745Z,1022.06
2024-01-08T02:01:38.708Z,1022.07
2024-01-08T02:01:52.715Z,1022.07
2024-01-08T02:02:06.737Z,1022.06
2024-01-08T02:02:20.798Z,1022.05
2024-01-08T02:02:48.906Z,1022.05
2024-01-08T02:03:03.181Z,1022.06
2024-01-08T02:03:17.417Z,1022.06
2024-01-08T02:03:31.552Z,1022.06
2024-01-08T02:03:59.691Z,1022.06
2024-01-08T02:04:13.882Z,1022.07
2024-01-08T02:04:28.191Z,1022.07
2024-01-08T02:04:42.397Z,1022.07
2024-01-08T02:05:10.526Z,1022.08
2024-01-08T02:05:25.175Z,1022.08
2024-01-08T02:05:39.481Z,1022.06
2024-01-08T02:05:53.595Z,1022.06
2024-01-08T02:06:21.758Z,1022.07
2024-01-08T02:06:35.856Z,1022.06
2024-01-08T02:06:49.826Z,1022.06
2024-01-08T02:07:03.819Z,1022.07
2024-01-08T02:07:31.756Z,1022.07
2024-01-08T02:07:45.772Z,1022.07
2024-01-08T02:07:59.782Z,1022.07
2024-01-08T02:08:13.848Z,1022.05
2024-01-08T02:08:41.836Z,1022.06
2024-01-08T02:08:55.835Z,1022.06
2024-01-08T02:09:09.962Z,1022.06
2024-01-08T02:09:23.950Z,1022.06
2024-01-08T02:09:51.925Z,1022.05
2024-01-08T02:10:05.945Z,1022.05
2024-01-08T02:10:19.925Z,1022.07
2024-01-08T02:10:33.915Z,1022.07
2024-01-08T02:11:01.904Z,1022.06
2024-01-08T02:11:16.011Z,1022.07
2024-01-08T02:11:30.107Z,1022.06
2024-01-08T02:11:44.175Z,1022.06
2024-01-08T02:12:12.123Z,1022.05
2024-01-08T02:12:26.111Z,1022.06
2024-01-08T02:12:40.097Z,1022.06
2024-01-08T02:12:54.134Z,1022.06
2024-01-08T02:13:22.180Z,1022.05
2024-01-08T02:13:36.262Z,1022.05
2024-01-08T02:13:50.273Z,1022.06
2024-01-08T02:14:04.457Z,1022.07
2024-01-08T02:14:18.563Z,1022.07
2024-01-08T02:14:32.606Z,1022.05
2024-01-08T02:14:46.655Z,1022.05
2024-01-08T02:15:00.624Z,1022.05
2024-01-08T02:15:14.610Z,1022.04
2024-01-08T02:15:42.584Z,1022.06
2024-01-08T02:15:56.592Z,1022.07
2024-01-08T02:16:10.602Z,1022.05
2024-01-08T02:16:24.590Z,1022.05
2024-01-08T02:16:52.626Z,1022.04
2024-01-08T02:17:06.724Z,1022.05
2024-01-08T02:17:20.736Z,1022.05
2024-01-08T02:17:34.869Z,1022.04
2024-01-08T02:18:03.004Z,1022.05
2024-01-08T02:18:17.115Z,1022.04
2024-01-08T02:18:31.248Z,1022.04
2024-01-08T02:18:45.428Z,1022.04
2024-01-08T02:19:13.486Z,1022.03
2024-01-08T02:19:27.599Z,1022.03
2024-01-08T02:19:41.730Z,1022.04
2024-01-08T02:19:55.754Z,1022.05
2024-01-08T02:20:23.807Z,1022.03
2024-01-08T02:20:37.974Z,1022.03
2024-01-08T02:20:52.066Z,1022.04
2024-01-08T02:21:06.066Z,1022.03
2024-01-08T02:21:34.038Z,1022.04
2024-01-08T02:21:48.020Z,1022.04
2024-01-08T02:22:02.027Z,1022.04
2024-01-08T02:22:16.062Z,1022.05
2024-01-08T02:22:44.028Z,1022.05
2024-01-08T02:22:58.022Z,1022.05
2024-01-08T02:23:12.076Z,1022.04
2024-01-08T02:23:26.151Z,1022.05
2024-01-08T02:23:54.118Z,1022.04
2024-01-08T02:24:08.116Z,1022.04
2024-01-08T02:24:22.332Z,1022.04
2024-01-08T02:24:36.326Z,1022.05
2024-01-08T02:25:04.252Z,1022.05
2024-01-08T02:25:18.247Z,1022.06
2024-01-08T02:25:32.304Z,1022.06
2024-01-08T02:25:46.326Z,1022.06
2024-01-08T02:26:14.333Z,1022.05
2024-01-08T02:26:28.389Z,1022.05
2024-01-08T02:26:42.476Z,1022.05
2024-01-08T02:26:56.504Z,1022.06
2024-01-08T02:27:10.496Z,1022.07
2024-01-08T02:27:24.516Z,1022.07
2024-01-08T02:27:38.529Z,1022.06
2024-01-08T02:27:52.528Z,1022.05
2024-01-08T02:28:06.524Z,1022.05
2024-01-08T02:28:34.492Z,1022.06
2024-01-08T02:28:48.531Z,1022.05
2024-01-08T02:29:02.576Z,1022.08
2024-01-08T02:29:16.653Z,1022.08
2024-01-08T02:29:44.604Z,1022.08
2024-01-08T02:29:58.617Z,1022.07
2024-01-08T02:30:13.690Z,1022.06
2024-01-08T02:30:27.767Z,1022.07
2024-01-08T02:30:55.818Z,1022.08
2024-01-08T02:31:09.874Z,1022.08
2024-01-08T02:31:23.861Z,1022.08
2024-01-08T02:31:37.883Z,1022.08
2024-01-08T02:32:05.934Z,1022.07
2024-01-08T02:32:19.982Z,1022.07
2024-01-08T02:32:34.124Z,1022.07
2024-01-08T02:32:48.229Z,1022.06
2024-01-08T02:33:16.313Z,1022.06
2024-01-08T02:33:30.388Z,1022.06
2024-01-08T02:33:44.406Z,1022.04
2024-01-08T02:33:58.473Z,1022.04
2024-01-08T02:34:26.856Z,1022.04
2024-01-08T02:34:41.045Z,1022.05
2024-01-08T02:34:55.122Z,1022.04
2024-01-08T02:35:09.196Z,1022.04
2024-01-08T02:35:23.309Z,1022.04
2024-01-08T02:35:37.400Z,1022.04
2024-01-08T02:35:51.476Z,1022.03
2024-01-08T02:36:05.495Z,1022.02
2024-01-08T02:36:20.019Z,1022.03
2024-01-08T02:36:47.997Z,1022.02
2024-01-08T02:37:01.984Z,1022.02
2024-01-08T02:37:15.988Z,1022.02
2024-01-08T02:37:29.973Z,1022.02
2024-01-08T02:37:57.951Z,1022.03
2024-01-08T02:38:11.967Z,1022.03
2024-01-08T02:38:26.126Z,1022.02
2024-01-08T02:38:40.197Z,1022.02
2024-01-08T02:39:08.211Z,1022.02
2024-01-08T02:39:22.383Z,1022.01
2024-01-08T02:39:36.876Z,1022.02
2024-01-08T02:39:50.876Z,1022.03
2024-01-08T02:40:18.848Z,1022.04
2024-01-08T02:40:32.850Z,1022.03
2024-01-08T02:40:46.919Z,1022.03
2024-01-08T02:41:01.024Z,1022.03
2024-01-08T02:41:29.191Z,1022.03
2024-01-08T02:41:43.274Z,1022.04
2024-01-08T02:41:57.272Z,1022.05
2024-01-08T02:42:11.277Z,1022.05
2024-01-08T02:42:39.233Z,1022.06
2024-01-08T02:42:53.219Z,1022.07
2024-01-08T02:43:07.190Z,1022.07
2024-01-08T02:43:21.204Z,1022.08
2024-01-08T02:43:49.583Z,1022.07
2024-01-08T02:44:03.613Z,1022.09
2024-01-08T02:44:17.689Z,1022.09
2024-01-08T02:44:31.815Z,1022.08
2024-01-08T02:44:59.817Z,1022.09
2024-01-08T02:45:13.954Z,1022.09
2024-01-08T02:45:27.942Z,1022.09
2024-01-08T02:45:41.932Z,1022.10
2024-01-08T02:46:09.953Z,1022.09
2024-01-08T02:46:23.951Z,1022.09
2024-01-08T02:46:37.932Z,1022.08
2024-01-08T02:46:51.947Z,1022.09
2024-01-08T02:47:20.015Z,1022.07
2024-01-08T02:47:34.154Z,1022.07
2024-01-08T02:47:48.293Z,1022.07
2024-01-08T02:48:02.482Z,1022.07
2024-01-08T02:48:16.709Z,1022.07
2024-01-08T02:48:30.814Z,1022.07
2024-01-08T02:48:44.970Z,1022.07
2024-01-08T02:48:59.012Z,1022.06
2024-01-08T02:49:13.540Z,1022.07
2024-01-08T02:49:41.518Z,1022.08
2024-01-08T02:49:55.545Z,1022.07
2024-01-08T02:50:09.637Z,1022.08
2024-01-08T02:50:23.747Z,1022.07
2024-01-08T02:50:51.703Z,1022.08
2024-01-08T02:51:05.707Z,1022.08
2024-01-08T02:51:19.730Z,1022.09
2024-01-08T02:51:33.722Z,1022.08
2024-01-08T02:52:01.670Z,1022.08
2024-01-08T02:52:15.668Z,1022.09
2024-01-08T02:52:29.661Z,1022.11
2024-01-08T02:52:43.725Z,1022.11
2024-01-08T02:53:11.715Z,1022.11
2024-01-08T02:53:25.742Z,1022.11
2024-01-08T02:53:40.017Z,1022.10
2024-01-08T02:53:54.059Z,1022.10
2024-01-08T02:54:22.020Z,1022.11
2024-01-08T02:54:36.367Z,1022.12
2024-01-08T02:54:50.372Z,1022.12
2024-01-08T02:55:04.363Z,1022.11
2024-01-08T02:55:32.344Z,1022.12
2024-01-08T02:55:46.364Z,1022.11
2024-01-08T02:56:00.419Z,1022.12
2024-01-08T02:56:14.502Z,1022.13
2024-01-08T02:56:42.508Z,1022.12
2024-01-08T02:56:56.496Z,1022.12
2024-01-08T02:57:10.690Z,1022.11
2024-01-08T02:57:24.673Z,1022.11
2024-01-08T02:57:52.634Z,1022.13
2024-01-08T02:58:06.617Z,1022.12
2024-01-08T02:58:20.618Z,1022.13
2024-01-08T02:58:34.619Z,1022.12
2024-01-08T02:59:02.614Z,1022.12
2024-01-08T02:59:16.653Z,1022.13
2024-01-08T02:59:30.701Z,1022.13
2024-01-08T02:59:44.751Z,1022.13
2024-01-08T03:00:12.709Z,1022.15
2024-01-08T03:00:26.697Z,1022.15
2024-01-08T03:00:40.734Z,1022.15
2024-01-08T03:00:54.801Z,1022.15
2024-01-08T03:01:22.833Z,1022.16
2024-01-08T03:01:36.815Z,1022.15
2024-01-08T03:01:50.843Z,1022.16
2024-01-08T03:02:04.909Z,1022.16
2024-01-08T03:02:33.006Z,1022.17
2024-01-08T03:02:47.053Z,1022.16
2024-01-08T03:03:01.054Z,1022.17
2024-01-08T03:03:15.287Z,1022.16
2024-01-08T03:03:43.263Z,1022.15
2024-01-08T03:03:57.306Z,1022.15
2024-01-08T03:04:11.325Z,1022.15
2024-01-08T03:04:25.347Z,1022.16
2024-01-08T03:04:53.381Z,1022.16
2024-01-08T03:05:07.443Z,1022.15
2024-01-08T03:05:21.555Z,1022.15
2024-01-08T03:05:35.781Z,1022.15
2024-01-08T03:06:03.878Z,1022.16
2024-01-08T03:06:17.970Z,1022.16
2024-01-08T03:06:31.982Z,1022.16
2024-01-08T03:06:46.091Z,1022.15
2024-01-08T03:07:14.103Z,1022.16
2024-01-08T03:07:28.099Z,1022.17
2024-01-08T03:07:42.153Z,1022.18
2024-01-08T03:07:56.163Z,1022.18
2024-01-08T03:08:24.174Z,1022.19
2024-01-08T03:08:38.269Z,1022.19
2024-01-08T03:08:52.335Z,1022.19
2024-01-08T03:09:06.325Z,1022.19
2024-01-08T03:09:20.313Z,1022.19
2024-01-08T03:09:34.408Z,1022.19
2024-01-08T03:09:48.434Z,1022.19
2024-01-08T03:10:02.442Z,1022.19
2024-01-08T03:10:16.428Z,1022.20
2024-01-08T03:10:44.397Z,1022.21
2024-01-08T03:10:58.395Z,1022.22
2024-01-08T03:11:12.408Z,1022.23
2024-01-08T03:11:26.423Z,1022.22
2024-01-08T03:11:54.422Z,1022.23
2024-01-08T03:12:08.410Z,1022.22
2024-01-08T03:12:22.598Z,1022.23
2024-01-08T03:12:36.616Z,1022.22
2024-01-08T03:13:04.576Z,1022.23
2024-01-08T03:13:18.579Z,1022.23
2024-01-08T03:13:32.567Z,1022.24
2024-01-08T03:13:46.606Z,1022.23
2024-01-08T03:14:14.594Z,1022.25
2024-01-08T03:14:28.690Z,1022.25
2024-01-08T03:14:42.703Z,1022.23
2024-01-08T03:14:56.718Z,1022.23
2024-01-08T03:15:24.680Z,1022.26
2024-01-08T03:15:38.655Z,1022.26
2024-01-08T03:15:52.638Z,1022.26
2024-01-08T03:16:06.644Z,1022.27
2024-01-08T03:16:34.630Z,1022.27
2024-01-08T03:16:48.799Z,1022.28
2024-01-08T03:17:02.821Z,1022.28
2024-01-08T03:17:16.863Z,1022.27
2024-01-08T03:17:44.952Z,1022.27
2024-01-08T03:17:59.041Z,1022.27
2024-01-08T03:18:13.156Z,1022.28
2024-01-08T03:18:27.281Z,1022.28
2024-01-08T03:18:55.351Z,1022.28
2024-01-08T03:19:09.407Z,1022.29
2024-01-08T03:19:23.496Z,1022.30
2024-01-08T03:19:37.599Z,1022.29
2024-01-08T03:20:05.700Z,1022.29
2024-01-08T03:20:19.737Z,1022.29
2024-01-08T03:20:33.836Z,1022.30
2024-01-08T03:20:47.873Z,1022.28
2024-01-08T03:21:15.830Z,1022.29
2024-01-08T03:21:29.822Z,1022.28
2024-01-08T03:21:43.801Z,1022.29
2024-01-08T03:21:57.793Z,1022.29
2024-01-08T03:22:25.731Z,1022.31
2024-01-08T03:22:39.729Z,1022.31
2024-01-08T03:22:53.924Z,1022.30
2024-01-08T03:23:08.003Z,1022.30
2024-01-08T03:23:36.161Z,1022.30
2024-01-08T03:23:50.351Z,1022.30
2024-01-08T03:24:04.482Z,1022.30
2024-01-08T03:24:18.534Z,1022.29
2024-01-08T03:24:46.485Z,1022.29
2024-01-08T03:25:00.500Z,1022.29
2024-01-08T03:25:14.509Z,1022.29
2024-01-08T03:25:28.492Z,1022.29
2024-01-08T03:25:56.458Z,1022.29
2024-01-08T03:26:10.564Z,1022.29
2024-01-08T03:26:24.653Z,1022.29
2024-01-08T03:26:38.807Z,1022.28
2024-01-08T03:27:06.863Z,1022.28
2024-01-08T03:27:20.873Z,1022.28
2024-01-08T03:27:34.866Z,1022.29
2024-01-08T03:27:48.872Z,1022.30
2024-01-08T03:28:16.951Z,1022.30
2024-01-08T03:28:30.937Z,1022.30
2024-01-08T03:28:45.469Z,1022.29
2024-01-08T03:28:59.563Z,1022.28
2024-01-08T03:29:27.691Z,1022.29